sensor_id;sensor_type;location;lat;lon;timestamp;P1;durP1;ratioP1;P2;durP2;ratioP2
74626;SDS011;63132;52.268;5.192;2023-02-02T00:02:01;34.23;;;5.70;;
74626;SDS011;63132;52.268;5.192;2023-02-02T00:04:28;27.13;;;5.00;;
74626;SDS011;63132;52.268;5.192;2023-02-02T00:06:56;30.52;;;5.07;;
74626;SDS011;63132;52.268;5.192;2023-02-02T00:09:22;35.28;;;5.57;;
74626;SDS011;63132;52.268;5.192;2023-02-02T00:11:48;23.57;;;4.57;;
74626;SDS011;63132;52.268;5.192;2023-02-02T00:14:15;33.95;;;5.40;;
74626;SDS011;63132;52.268;5.192;2023-02-02T00:16:42;32.00;;;5.05;;
74626;SDS011;63132;52.268;5.192;2023-02-02T00:19:20;26.75;;;5.03;;
74626;SDS011;63132;52.268;5.192;2023-02-02T00:21:54;27.27;;;5.35;;
74626;SDS011;63132;52.268;5.192;2023-02-02T00:24:20;31.85;;;5.22;;
74626;SDS011;63132;52.268;5.192;2023-02-02T00:26:47;27.17;;;4.85;;
74626;SDS011;63132;52.268;5.192;2023-02-02T00:29:48;25.83;;;4.07;;
74626;SDS011;63132;52.268;5.192;2023-02-02T00:32:06;26.60;;;4.50;;
74626;SDS011;63132;52.268;5.192;2023-02-02T00:34:31;25.77;;;4.13;;
74626;SDS011;63132;52.268;5.192;2023-02-02T00:36:57;26.03;;;5.00;;
74626;SDS011;63132;52.268;5.192;2023-02-02T00:39:23;26.40;;;4.25;;
74626;SDS011;63132;52.268;5.192;2023-02-02T00:41:52;21.98;;;3.95;;
74626;SDS011;63132;52.268;5.192;2023-02-02T00:44:18;21.45;;;3.70;;
74626;SDS011;63132;52.268;5.192;2023-02-02T00:47:03;15.82;;;2.63;;
74626;SDS011;63132;52.268;5.192;2023-02-02T00:49:29;17.83;;;3.40;;
74626;SDS011;63132;52.268;5.192;2023-02-02T00:51:54;20.77;;;3.50;;
74626;SDS011;63132;52.268;5.192;2023-02-02T00:54:20;23.47;;;3.77;;
74626;SDS011;63132;52.268;5.192;2023-02-02T00:56:45;22.90;;;3.70;;
74626;SDS011;63132;52.268;5.192;2023-02-02T00:59:11;17.00;;;3.07;;
74626;SDS011;63132;52.268;5.192;2023-02-02T01:01:36;17.73;;;3.03;;
74626;SDS011;63132;52.268;5.192;2023-02-02T01:04:02;13.20;;;2.38;;
74626;SDS011;63132;52.268;5.192;2023-02-02T01:06:27;17.17;;;2.83;;
74626;SDS011;63132;52.268;5.192;2023-02-02T01:08:53;14.93;;;2.40;;
74626;SDS011;63132;52.268;5.192;2023-02-02T01:11:18;10.67;;;1.90;;
74626;SDS011;63132;52.268;5.192;2023-02-02T01:13:44;11.00;;;1.67;;
74626;SDS011;63132;52.268;5.192;2023-02-02T01:16:09;9.00;;;2.15;;
74626;SDS011;63132;52.268;5.192;2023-02-02T01:18:35;8.98;;;2.00;;
74626;SDS011;63132;52.268;5.192;2023-02-02T01:21:06;10.93;;;1.52;;
74626;SDS011;63132;52.268;5.192;2023-02-02T01:23:33;9.55;;;1.60;;
74626;SDS011;63132;52.268;5.192;2023-02-02T01:26:01;10.35;;;1.67;;
74626;SDS011;63132;52.268;5.192;2023-02-02T01:28:28;8.43;;;1.70;;
74626;SDS011;63132;52.268;5.192;2023-02-02T01:30:54;9.93;;;1.77;;
74626;SDS011;63132;52.268;5.192;2023-02-02T01:33:20;7.10;;;1.48;;
74626;SDS011;63132;52.268;5.192;2023-02-02T01:35:51;6.07;;;1.50;;
74626;SDS011;63132;52.268;5.192;2023-02-02T01:38:18;7.80;;;1.52;;
74626;SDS011;63132;52.268;5.192;2023-02-02T01:40:48;8.50;;;1.50;;
74626;SDS011;63132;52.268;5.192;2023-02-02T01:44:02;8.80;;;1.50;;
74626;SDS011;63132;52.268;5.192;2023-02-02T01:46:15;8.23;;;1.88;;
74626;SDS011;63132;52.268;5.192;2023-02-02T01:51:20;8.67;;;1.67;;
74626;SDS011;63132;52.268;5.192;2023-02-02T01:53:49;10.85;;;1.85;;
74626;SDS011;63132;52.268;5.192;2023-02-02T01:56:20;11.20;;;2.10;;
74626;SDS011;63132;52.268;5.192;2023-02-02T01:58:50;8.65;;;2.08;;
74626;SDS011;63132;52.268;5.192;2023-02-02T02:01:16;11.88;;;2.13;;
74626;SDS011;63132;52.268;5.192;2023-02-02T02:03:42;13.90;;;2.33;;
74626;SDS011;63132;52.268;5.192;2023-02-02T02:06:12;11.43;;;2.50;;
74626;SDS011;63132;52.268;5.192;2023-02-02T02:08:50;10.55;;;2.83;;
74626;SDS011;63132;52.268;5.192;2023-02-02T02:11:19;11.38;;;3.10;;
74626;SDS011;63132;52.268;5.192;2023-02-02T02:13:45;12.60;;;3.30;;
74626;SDS011;63132;52.268;5.192;2023-02-02T02:22:27;25.52;;;5.05;;
74626;SDS011;63132;52.268;5.192;2023-02-02T02:28:38;24.67;;;5.57;;
74626;SDS011;63132;52.268;5.192;2023-02-02T02:34:17;29.10;;;6.38;;
74626;SDS011;63132;52.268;5.192;2023-02-02T02:36:52;28.90;;;6.35;;
74626;SDS011;63132;52.268;5.192;2023-02-02T02:39:26;26.70;;;5.97;;
74626;SDS011;63132;52.268;5.192;2023-02-02T02:42:03;33.33;;;5.78;;
74626;SDS011;63132;52.268;5.192;2023-02-02T02:44:35;33.08;;;6.38;;
74626;SDS011;63132;52.268;5.192;2023-02-02T02:47:00;30.97;;;5.63;;
74626;SDS011;63132;52.268;5.192;2023-02-02T02:49:27;26.17;;;5.25;;
74626;SDS011;63132;52.268;5.192;2023-02-02T02:51:53;32.80;;;5.97;;
74626;SDS011;63132;52.268;5.192;2023-02-02T02:54:26;37.78;;;6.07;;
74626;SDS011;63132;52.268;5.192;2023-02-02T02:59:55;35.13;;;5.88;;
74626;SDS011;63132;52.268;5.192;2023-02-02T03:03:04;33.05;;;6.57;;
74626;SDS011;63132;52.268;5.192;2023-02-02T03:08:43;31.27;;;5.95;;
74626;SDS011;63132;52.268;5.192;2023-02-02T03:11:12;28.27;;;6.45;;
74626;SDS011;63132;52.268;5.192;2023-02-02T03:13:40;35.33;;;5.70;;
74626;SDS011;63132;52.268;5.192;2023-02-02T03:16:06;32.70;;;6.22;;
74626;SDS011;63132;52.268;5.192;2023-02-02T03:18:33;30.88;;;5.63;;
74626;SDS011;63132;52.268;5.192;2023-02-02T03:20:59;34.90;;;5.70;;
74626;SDS011;63132;52.268;5.192;2023-02-02T03:23:24;31.90;;;6.70;;
74626;SDS011;63132;52.268;5.192;2023-02-02T03:25:50;31.60;;;5.87;;
74626;SDS011;63132;52.268;5.192;2023-02-02T03:28:16;37.20;;;5.87;;
74626;SDS011;63132;52.268;5.192;2023-02-02T03:30:43;31.63;;;5.93;;
74626;SDS011;63132;52.268;5.192;2023-02-02T03:33:09;30.17;;;6.03;;
74626;SDS011;63132;52.268;5.192;2023-02-02T03:35:36;30.15;;;5.65;;
74626;SDS011;63132;52.268;5.192;2023-02-02T03:38:02;24.95;;;5.53;;
74626;SDS011;63132;52.268;5.192;2023-02-02T03:40:28;29.50;;;6.18;;
74626;SDS011;63132;52.268;5.192;2023-02-02T03:42:54;31.05;;;5.85;;
74626;SDS011;63132;52.268;5.192;2023-02-02T03:45:20;28.75;;;6.13;;
74626;SDS011;63132;52.268;5.192;2023-02-02T03:47:46;39.28;;;6.78;;
74626;SDS011;63132;52.268;5.192;2023-02-02T03:50:11;33.45;;;5.68;;
74626;SDS011;63132;52.268;5.192;2023-02-02T03:52:37;30.23;;;5.82;;
74626;SDS011;63132;52.268;5.192;2023-02-02T03:55:03;33.05;;;5.60;;
74626;SDS011;63132;52.268;5.192;2023-02-02T03:57:29;29.42;;;5.43;;
74626;SDS011;63132;52.268;5.192;2023-02-02T03:59:54;27.77;;;6.10;;
74626;SDS011;63132;52.268;5.192;2023-02-02T04:02:20;27.53;;;5.53;;
74626;SDS011;63132;52.268;5.192;2023-02-02T04:04:46;26.10;;;5.13;;
74626;SDS011;63132;52.268;5.192;2023-02-02T04:07:11;30.57;;;5.50;;
74626;SDS011;63132;52.268;5.192;2023-02-02T04:09:37;24.33;;;4.72;;
74626;SDS011;63132;52.268;5.192;2023-02-02T04:12:02;28.30;;;5.70;;
74626;SDS011;63132;52.268;5.192;2023-02-02T04:14:27;24.67;;;4.90;;
74626;SDS011;63132;52.268;5.192;2023-02-02T04:16:53;30.33;;;5.17;;
74626;SDS011;63132;52.268;5.192;2023-02-02T04:19:18;28.40;;;5.37;;
74626;SDS011;63132;52.268;5.192;2023-02-02T04:21:44;26.75;;;5.15;;
74626;SDS011;63132;52.268;5.192;2023-02-02T04:24:09;29.47;;;5.13;;
74626;SDS011;63132;52.268;5.192;2023-02-02T04:26:36;26.92;;;5.47;;
74626;SDS011;63132;52.268;5.192;2023-02-02T04:29:01;25.10;;;5.30;;
74626;SDS011;63132;52.268;5.192;2023-02-02T04:31:27;31.80;;;5.10;;
74626;SDS011;63132;52.268;5.192;2023-02-02T04:33:54;28.85;;;5.40;;
74626;SDS011;63132;52.268;5.192;2023-02-02T04:36:19;24.45;;;4.70;;
74626;SDS011;63132;52.268;5.192;2023-02-02T04:38:47;25.33;;;4.53;;
74626;SDS011;63132;52.268;5.192;2023-02-02T04:41:16;27.00;;;5.15;;
74626;SDS011;63132;52.268;5.192;2023-02-02T04:43:44;26.10;;;5.40;;
74626;SDS011;63132;52.268;5.192;2023-02-02T04:46:10;24.73;;;5.47;;
74626;SDS011;63132;52.268;5.192;2023-02-02T04:48:36;23.20;;;5.72;;
74626;SDS011;63132;52.268;5.192;2023-02-02T04:51:06;29.17;;;5.25;;
74626;SDS011;63132;52.268;5.192;2023-02-02T04:53:34;30.58;;;5.40;;
74626;SDS011;63132;52.268;5.192;2023-02-02T04:56:06;32.13;;;5.75;;
74626;SDS011;63132;52.268;5.192;2023-02-02T04:58:33;25.63;;;5.70;;
74626;SDS011;63132;52.268;5.192;2023-02-02T05:00:58;24.90;;;5.10;;
74626;SDS011;63132;52.268;5.192;2023-02-02T05:03:24;20.80;;;5.07;;
74626;SDS011;63132;52.268;5.192;2023-02-02T05:05:49;30.83;;;5.73;;
74626;SDS011;63132;52.268;5.192;2023-02-02T05:08:14;26.10;;;5.43;;
74626;SDS011;63132;52.268;5.192;2023-02-02T05:10:40;29.70;;;5.27;;
74626;SDS011;63132;52.268;5.192;2023-02-02T05:13:06;30.23;;;6.35;;
74626;SDS011;63132;52.268;5.192;2023-02-02T05:15:32;25.25;;;5.65;;
74626;SDS011;63132;52.268;5.192;2023-02-02T05:17:57;34.42;;;5.60;;
74626;SDS011;63132;52.268;5.192;2023-02-02T05:20:23;23.30;;;4.70;;
74626;SDS011;63132;52.268;5.192;2023-02-02T05:22:48;22.97;;;4.93;;
74626;SDS011;63132;52.268;5.192;2023-02-02T05:25:14;22.47;;;4.90;;
74626;SDS011;63132;52.268;5.192;2023-02-02T05:27:42;24.70;;;4.82;;
74626;SDS011;63132;52.268;5.192;2023-02-02T05:30:08;24.20;;;4.88;;
74626;SDS011;63132;52.268;5.192;2023-02-02T05:32:35;22.98;;;4.72;;
74626;SDS011;63132;52.268;5.192;2023-02-02T05:35:01;25.27;;;5.13;;
74626;SDS011;63132;52.268;5.192;2023-02-02T05:37:26;25.33;;;4.97;;
74626;SDS011;63132;52.268;5.192;2023-02-02T05:39:51;27.33;;;4.80;;
74626;SDS011;63132;52.268;5.192;2023-02-02T05:42:17;20.63;;;4.07;;
74626;SDS011;63132;52.268;5.192;2023-02-02T05:44:43;21.10;;;4.90;;
74626;SDS011;63132;52.268;5.192;2023-02-02T05:47:08;23.17;;;4.20;;
74626;SDS011;63132;52.268;5.192;2023-02-02T05:49:34;20.60;;;4.53;;
74626;SDS011;63132;52.268;5.192;2023-02-02T05:51:59;24.47;;;5.03;;
74626;SDS011;63132;52.268;5.192;2023-02-02T05:54:24;22.90;;;4.60;;
74626;SDS011;63132;52.268;5.192;2023-02-02T05:56:51;24.37;;;4.57;;
74626;SDS011;63132;52.268;5.192;2023-02-02T05:59:18;22.00;;;5.47;;
74626;SDS011;63132;52.268;5.192;2023-02-02T06:01:44;24.27;;;4.60;;
74626;SDS011;63132;52.268;5.192;2023-02-02T06:04:10;21.25;;;4.25;;
74626;SDS011;63132;52.268;5.192;2023-02-02T06:06:36;20.57;;;4.63;;
74626;SDS011;63132;52.268;5.192;2023-02-02T06:09:03;23.70;;;4.82;;
74626;SDS011;63132;52.268;5.192;2023-02-02T06:11:29;22.42;;;4.35;;
74626;SDS011;63132;52.268;5.192;2023-02-02T06:13:55;27.50;;;5.45;;
74626;SDS011;63132;52.268;5.192;2023-02-02T06:16:20;24.15;;;4.55;;
74626;SDS011;63132;52.268;5.192;2023-02-02T06:18:46;27.67;;;5.07;;
74626;SDS011;63132;52.268;5.192;2023-02-02T06:21:12;26.70;;;4.97;;
74626;SDS011;63132;52.268;5.192;2023-02-02T06:23:38;27.53;;;4.90;;
74626;SDS011;63132;52.268;5.192;2023-02-02T06:26:09;32.13;;;5.38;;
74626;SDS011;63132;52.268;5.192;2023-02-02T06:28:35;20.37;;;4.90;;
74626;SDS011;63132;52.268;5.192;2023-02-02T06:31:08;25.00;;;4.60;;
74626;SDS011;63132;52.268;5.192;2023-02-02T06:33:35;24.98;;;4.95;;
74626;SDS011;63132;52.268;5.192;2023-02-02T06:36:01;25.73;;;4.95;;
74626;SDS011;63132;52.268;5.192;2023-02-02T06:38:28;24.60;;;5.60;;
74626;SDS011;63132;52.268;5.192;2023-02-02T06:40:53;23.57;;;5.63;;
74626;SDS011;63132;52.268;5.192;2023-02-02T06:43:19;28.48;;;5.70;;
74626;SDS011;63132;52.268;5.192;2023-02-02T06:45:45;26.52;;;5.22;;
74626;SDS011;63132;52.268;5.192;2023-02-02T06:48:11;24.92;;;5.22;;
74626;SDS011;63132;52.268;5.192;2023-02-02T06:50:36;33.07;;;5.87;;
74626;SDS011;63132;52.268;5.192;2023-02-02T06:53:02;25.17;;;6.05;;
74626;SDS011;63132;52.268;5.192;2023-02-02T06:55:28;25.70;;;5.72;;
74626;SDS011;63132;52.268;5.192;2023-02-02T06:57:57;33.27;;;6.07;;
74626;SDS011;63132;52.268;5.192;2023-02-02T07:00:24;29.27;;;6.32;;
74626;SDS011;63132;52.268;5.192;2023-02-02T07:02:49;27.30;;;5.90;;
74626;SDS011;63132;52.268;5.192;2023-02-02T07:05:15;28.33;;;5.77;;
74626;SDS011;63132;52.268;5.192;2023-02-02T07:07:43;28.77;;;5.85;;
74626;SDS011;63132;52.268;5.192;2023-02-02T07:10:09;31.35;;;6.60;;
74626;SDS011;63132;52.268;5.192;2023-02-02T07:12:35;28.15;;;6.57;;
74626;SDS011;63132;52.268;5.192;2023-02-02T07:15:01;29.45;;;6.22;;
74626;SDS011;63132;52.268;5.192;2023-02-02T07:17:27;36.10;;;6.55;;
74626;SDS011;63132;52.268;5.192;2023-02-02T07:19:52;34.13;;;6.53;;
74626;SDS011;63132;52.268;5.192;2023-02-02T07:22:18;28.93;;;5.87;;
74626;SDS011;63132;52.268;5.192;2023-02-02T07:24:43;34.23;;;6.57;;
74626;SDS011;63132;52.268;5.192;2023-02-02T07:27:08;27.70;;;6.50;;
74626;SDS011;63132;52.268;5.192;2023-02-02T07:29:34;29.23;;;6.63;;
74626;SDS011;63132;52.268;5.192;2023-02-02T07:31:59;30.70;;;6.50;;
74626;SDS011;63132;52.268;5.192;2023-02-02T07:34:24;28.03;;;5.70;;
74626;SDS011;63132;52.268;5.192;2023-02-02T07:36:50;30.30;;;6.07;;
74626;SDS011;63132;52.268;5.192;2023-02-02T07:39:16;25.08;;;5.35;;
74626;SDS011;63132;52.268;5.192;2023-02-02T07:41:41;26.03;;;5.97;;
74626;SDS011;63132;52.268;5.192;2023-02-02T07:44:14;27.13;;;5.70;;
74626;SDS011;63132;52.268;5.192;2023-02-02T07:46:43;31.23;;;5.57;;
74626;SDS011;63132;52.268;5.192;2023-02-02T07:49:11;28.48;;;5.72;;
74626;SDS011;63132;52.268;5.192;2023-02-02T07:51:38;25.00;;;5.10;;
74626;SDS011;63132;52.268;5.192;2023-02-02T07:54:04;26.70;;;4.93;;
74626;SDS011;63132;52.268;5.192;2023-02-02T07:56:30;33.65;;;6.20;;
74626;SDS011;63132;52.268;5.192;2023-02-02T07:58:55;22.80;;;5.60;;
74626;SDS011;63132;52.268;5.192;2023-02-02T08:01:21;24.88;;;5.28;;
74626;SDS011;63132;52.268;5.192;2023-02-02T08:03:49;31.08;;;5.80;;
74626;SDS011;63132;52.268;5.192;2023-02-02T08:06:17;28.52;;;6.18;;
74626;SDS011;63132;52.268;5.192;2023-02-02T08:08:46;26.73;;;5.03;;
74626;SDS011;63132;52.268;5.192;2023-02-02T08:11:12;21.70;;;5.13;;
74626;SDS011;63132;52.268;5.192;2023-02-02T08:13:39;30.42;;;5.20;;
74626;SDS011;63132;52.268;5.192;2023-02-02T08:16:05;29.23;;;5.60;;
74626;SDS011;63132;52.268;5.192;2023-02-02T08:18:31;27.20;;;5.60;;
74626;SDS011;63132;52.268;5.192;2023-02-02T08:20:58;25.92;;;5.53;;
74626;SDS011;63132;52.268;5.192;2023-02-02T08:23:27;27.15;;;4.93;;
74626;SDS011;63132;52.268;5.192;2023-02-02T08:25:53;24.50;;;5.10;;
74626;SDS011;63132;52.268;5.192;2023-02-02T08:28:20;26.30;;;4.82;;
74626;SDS011;63132;52.268;5.192;2023-02-02T08:30:46;25.98;;;5.10;;
74626;SDS011;63132;52.268;5.192;2023-02-02T08:33:11;25.37;;;4.87;;
74626;SDS011;63132;52.268;5.192;2023-02-02T08:35:40;24.40;;;5.30;;
74626;SDS011;63132;52.268;5.192;2023-02-02T08:38:07;33.10;;;5.68;;
74626;SDS011;63132;52.268;5.192;2023-02-02T08:40:32;25.17;;;4.93;;
74626;SDS011;63132;52.268;5.192;2023-02-02T08:42:58;19.23;;;4.30;;
74626;SDS011;63132;52.268;5.192;2023-02-02T08:45:24;26.42;;;4.78;;
74626;SDS011;63132;52.268;5.192;2023-02-02T08:47:49;22.92;;;4.63;;
74626;SDS011;63132;52.268;5.192;2023-02-02T08:50:16;27.70;;;5.70;;
74626;SDS011;63132;52.268;5.192;2023-02-02T08:52:42;27.40;;;4.65;;
74626;SDS011;63132;52.268;5.192;2023-02-02T08:55:07;22.55;;;4.72;;
74626;SDS011;63132;52.268;5.192;2023-02-02T08:57:33;22.75;;;4.47;;
74626;SDS011;63132;52.268;5.192;2023-02-02T08:59:58;24.13;;;4.87;;
74626;SDS011;63132;52.268;5.192;2023-02-02T09:02:24;25.37;;;4.70;;
74626;SDS011;63132;52.268;5.192;2023-02-02T09:04:49;24.45;;;4.70;;
74626;SDS011;63132;52.268;5.192;2023-02-02T09:07:14;23.53;;;4.47;;
74626;SDS011;63132;52.268;5.192;2023-02-02T09:09:48;27.30;;;5.17;;
74626;SDS011;63132;52.268;5.192;2023-02-02T09:12:14;26.58;;;5.07;;
74626;SDS011;63132;52.268;5.192;2023-02-02T09:14:40;20.53;;;4.23;;
74626;SDS011;63132;52.268;5.192;2023-02-02T09:17:05;28.03;;;5.33;;
74626;SDS011;63132;52.268;5.192;2023-02-02T09:19:30;21.83;;;4.47;;
74626;SDS011;63132;52.268;5.192;2023-02-02T09:21:56;27.87;;;5.00;;
74626;SDS011;63132;52.268;5.192;2023-02-02T09:24:21;21.20;;;4.27;;
74626;SDS011;63132;52.268;5.192;2023-02-02T09:26:47;20.37;;;4.60;;
74626;SDS011;63132;52.268;5.192;2023-02-02T09:29:14;23.53;;;4.90;;
74626;SDS011;63132;52.268;5.192;2023-02-02T09:31:41;22.30;;;4.40;;
74626;SDS011;63132;52.268;5.192;2023-02-02T09:34:08;21.52;;;4.80;;
74626;SDS011;63132;52.268;5.192;2023-02-02T09:36:36;26.58;;;5.18;;
74626;SDS011;63132;52.268;5.192;2023-02-02T09:39:03;23.77;;;5.13;;
74626;SDS011;63132;52.268;5.192;2023-02-02T09:49:13;22.83;;;5.10;;
74626;SDS011;63132;52.268;5.192;2023-02-02T09:51:46;25.67;;;4.93;;
74626;SDS011;63132;52.268;5.192;2023-02-02T09:54:22;23.50;;;5.20;;
74626;SDS011;63132;52.268;5.192;2023-02-02T09:57:07;23.33;;;4.50;;
74626;SDS011;63132;52.268;5.192;2023-02-02T09:59:43;27.63;;;4.77;;
74626;SDS011;63132;52.268;5.192;2023-02-02T10:02:16;27.27;;;5.05;;
74626;SDS011;63132;52.268;5.192;2023-02-02T10:04:45;22.90;;;4.63;;
74626;SDS011;63132;52.268;5.192;2023-02-02T10:07:16;24.55;;;5.13;;
74626;SDS011;63132;52.268;5.192;2023-02-02T10:20:29;29.70;;;5.57;;
74626;SDS011;63132;52.268;5.192;2023-02-02T10:23:24;25.02;;;5.03;;
74626;SDS011;63132;52.268;5.192;2023-02-02T10:25:55;21.83;;;4.80;;
74626;SDS011;63132;52.268;5.192;2023-02-02T10:28:41;24.70;;;4.73;;
74626;SDS011;63132;52.268;5.192;2023-02-02T10:31:57;22.27;;;5.20;;
74626;SDS011;63132;52.268;5.192;2023-02-02T10:34:24;25.25;;;5.30;;
74626;SDS011;63132;52.268;5.192;2023-02-02T10:37:01;23.55;;;4.65;;
74626;SDS011;63132;52.268;5.192;2023-02-02T10:42:22;25.30;;;5.57;;
74626;SDS011;63132;52.268;5.192;2023-02-02T10:45:18;27.02;;;5.18;;
74626;SDS011;63132;52.268;5.192;2023-02-02T10:47:46;22.13;;;4.55;;
74626;SDS011;63132;52.268;5.192;2023-02-02T10:52:36;19.47;;;4.23;;
74626;SDS011;63132;52.268;5.192;2023-02-02T11:00:27;19.00;;;4.65;;
74626;SDS011;63132;52.268;5.192;2023-02-02T11:02:59;21.77;;;4.82;;
74626;SDS011;63132;52.268;5.192;2023-02-02T11:05:28;17.83;;;4.15;;
74626;SDS011;63132;52.268;5.192;2023-02-02T11:08:32;22.08;;;4.47;;
74626;SDS011;63132;52.268;5.192;2023-02-02T11:11:17;22.73;;;5.10;;
74626;SDS011;63132;52.268;5.192;2023-02-02T11:16:19;25.25;;;4.60;;
74626;SDS011;63132;52.268;5.192;2023-02-02T11:18:46;23.48;;;4.80;;
74626;SDS011;63132;52.268;5.192;2023-02-02T11:21:17;25.27;;;4.87;;
74626;SDS011;63132;52.268;5.192;2023-02-02T11:29:41;22.35;;;4.10;;
74626;SDS011;63132;52.268;5.192;2023-02-02T11:32:16;22.35;;;3.85;;
74626;SDS011;63132;52.268;5.192;2023-02-02T11:37:28;21.08;;;3.90;;
74626;SDS011;63132;52.268;5.192;2023-02-02T11:43:22;20.30;;;4.07;;
74626;SDS011;63132;52.268;5.192;2023-02-02T11:46:01;21.10;;;4.00;;
74626;SDS011;63132;52.268;5.192;2023-02-02T11:48:30;21.73;;;4.38;;
74626;SDS011;63132;52.268;5.192;2023-02-02T11:51:12;21.97;;;4.10;;
74626;SDS011;63132;52.268;5.192;2023-02-02T11:53:46;17.20;;;3.63;;
74626;SDS011;63132;52.268;5.192;2023-02-02T11:56:17;26.17;;;4.15;;
74626;SDS011;63132;52.268;5.192;2023-02-02T11:58:46;21.02;;;4.10;;
74626;SDS011;63132;52.268;5.192;2023-02-02T12:01:24;20.77;;;4.30;;
74626;SDS011;63132;52.268;5.192;2023-02-02T12:03:55;20.52;;;4.05;;
74626;SDS011;63132;52.268;5.192;2023-02-02T12:08:58;27.97;;;4.47;;
74626;SDS011;63132;52.268;5.192;2023-02-02T12:11:34;23.42;;;3.95;;
74626;SDS011;63132;52.268;5.192;2023-02-02T12:17:26;20.90;;;4.03;;
74626;SDS011;63132;52.268;5.192;2023-02-02T12:33:40;23.92;;;3.70;;
74626;SDS011;63132;52.268;5.192;2023-02-02T12:47:26;21.23;;;4.10;;
74626;SDS011;63132;52.268;5.192;2023-02-02T13:03:00;17.40;;;3.42;;
74626;SDS011;63132;52.268;5.192;2023-02-02T13:05:58;19.58;;;3.47;;
74626;SDS011;63132;52.268;5.192;2023-02-02T13:11:45;16.20;;;3.17;;
74626;SDS011;63132;52.268;5.192;2023-02-02T13:14:24;15.85;;;3.03;;
74626;SDS011;63132;52.268;5.192;2023-02-02T13:17:05;19.55;;;3.45;;
74626;SDS011;63132;52.268;5.192;2023-02-02T13:19:37;19.65;;;3.60;;
74626;SDS011;63132;52.268;5.192;2023-02-02T13:22:06;18.48;;;3.83;;
74626;SDS011;63132;52.268;5.192;2023-02-02T13:24:41;19.10;;;4.10;;
74626;SDS011;63132;52.268;5.192;2023-02-02T13:27:11;23.85;;;3.97;;
74626;SDS011;63132;52.268;5.192;2023-02-02T13:29:43;23.02;;;3.83;;
74626;SDS011;63132;52.268;5.192;2023-02-02T13:32:16;22.98;;;3.40;;
74626;SDS011;63132;52.268;5.192;2023-02-02T13:34:52;14.33;;;3.33;;
74626;SDS011;63132;52.268;5.192;2023-02-02T13:37:34;21.35;;;3.83;;
74626;SDS011;63132;52.268;5.192;2023-02-02T13:59:23;9.02;;;2.50;;
74626;SDS011;63132;52.268;5.192;2023-02-02T14:01:50;8.70;;;2.58;;
74626;SDS011;63132;52.268;5.192;2023-02-02T14:04:21;6.13;;;2.40;;
74626;SDS011;63132;52.268;5.192;2023-02-02T14:07:03;11.38;;;2.40;;
74626;SDS011;63132;52.268;5.192;2023-02-02T14:09:32;7.18;;;2.50;;
74626;SDS011;63132;52.268;5.192;2023-02-02T14:12:01;5.67;;;2.20;;
74626;SDS011;63132;52.268;5.192;2023-02-02T14:14:31;7.33;;;2.50;;
74626;SDS011;63132;52.268;5.192;2023-02-02T14:29:33;7.13;;;2.83;;
74626;SDS011;63132;52.268;5.192;2023-02-02T14:34:57;9.18;;;3.17;;
74626;SDS011;63132;52.268;5.192;2023-02-02T14:46:37;8.18;;;3.80;;
74626;SDS011;63132;52.268;5.192;2023-02-02T14:48:48;11.82;;;4.07;;
74626;SDS011;63132;52.268;5.192;2023-02-02T14:51:32;10.48;;;4.03;;
74626;SDS011;63132;52.268;5.192;2023-02-02T14:54:14;12.02;;;4.05;;
74626;SDS011;63132;52.268;5.192;2023-02-02T14:56:50;13.60;;;4.70;;
74626;SDS011;63132;52.268;5.192;2023-02-02T14:59:27;12.43;;;4.23;;
74626;SDS011;63132;52.268;5.192;2023-02-02T15:02:01;12.83;;;4.70;;
74626;SDS011;63132;52.268;5.192;2023-02-02T15:04:46;15.20;;;5.25;;
74626;SDS011;63132;52.268;5.192;2023-02-02T15:09:47;15.55;;;5.25;;
74626;SDS011;63132;52.268;5.192;2023-02-02T15:14:40;15.52;;;4.97;;
74626;SDS011;63132;52.268;5.192;2023-02-02T15:17:13;21.20;;;5.18;;
74626;SDS011;63132;52.268;5.192;2023-02-02T15:19:44;21.83;;;5.20;;
74626;SDS011;63132;52.268;5.192;2023-02-02T15:24:42;25.52;;;5.82;;
74626;SDS011;63132;52.268;5.192;2023-02-02T15:27:16;22.73;;;4.57;;
74626;SDS011;63132;52.268;5.192;2023-02-02T15:29:44;18.15;;;4.10;;
74626;SDS011;63132;52.268;5.192;2023-02-02T15:32:13;24.00;;;4.50;;
74626;SDS011;63132;52.268;5.192;2023-02-02T15:34:42;18.48;;;4.40;;
74626;SDS011;63132;52.268;5.192;2023-02-02T15:37:22;23.00;;;5.33;;
74626;SDS011;63132;52.268;5.192;2023-02-02T15:39:51;18.17;;;4.35;;
74626;SDS011;63132;52.268;5.192;2023-02-02T15:42:21;18.38;;;4.72;;
74626;SDS011;63132;52.268;5.192;2023-02-02T15:48:24;22.73;;;4.75;;
74626;SDS011;63132;52.268;5.192;2023-02-02T15:50:54;15.98;;;4.10;;
74626;SDS011;63132;52.268;5.192;2023-02-02T15:53:27;16.35;;;4.97;;
74626;SDS011;63132;52.268;5.192;2023-02-02T15:56:18;22.25;;;4.60;;
74626;SDS011;63132;52.268;5.192;2023-02-02T15:58:55;18.98;;;4.68;;
74626;SDS011;63132;52.268;5.192;2023-02-02T16:01:23;18.70;;;5.13;;
74626;SDS011;63132;52.268;5.192;2023-02-02T16:03:51;20.48;;;4.93;;
74626;SDS011;63132;52.268;5.192;2023-02-02T16:06:28;20.02;;;5.00;;
74626;SDS011;63132;52.268;5.192;2023-02-02T16:08:54;21.33;;;5.43;;
74626;SDS011;63132;52.268;5.192;2023-02-02T16:11:20;20.40;;;4.77;;
74626;SDS011;63132;52.268;5.192;2023-02-02T16:13:56;26.17;;;5.25;;
74626;SDS011;63132;52.268;5.192;2023-02-02T16:16:26;22.48;;;5.22;;
74626;SDS011;63132;52.268;5.192;2023-02-02T16:19:04;25.00;;;4.78;;
74626;SDS011;63132;52.268;5.192;2023-02-02T16:21:30;28.37;;;5.50;;
74626;SDS011;63132;52.268;5.192;2023-02-02T16:23:57;24.58;;;4.97;;
74626;SDS011;63132;52.268;5.192;2023-02-02T16:26:24;25.10;;;5.40;;
74626;SDS011;63132;52.268;5.192;2023-02-02T16:28:53;18.27;;;4.50;;
74626;SDS011;63132;52.268;5.192;2023-02-02T16:31:19;26.73;;;4.85;;
74626;SDS011;63132;52.268;5.192;2023-02-02T16:33:44;27.58;;;4.85;;
74626;SDS011;63132;52.268;5.192;2023-02-02T16:36:17;21.30;;;5.20;;
74626;SDS011;63132;52.268;5.192;2023-02-02T16:38:49;20.63;;;4.73;;
74626;SDS011;63132;52.268;5.192;2023-02-02T16:46:56;18.17;;;4.33;;
74626;SDS011;63132;52.268;5.192;2023-02-02T16:49:23;18.98;;;5.03;;
74626;SDS011;63132;52.268;5.192;2023-02-02T16:54:38;22.52;;;4.90;;
74626;SDS011;63132;52.268;5.192;2023-02-02T16:57:10;19.33;;;4.65;;
74626;SDS011;63132;52.268;5.192;2023-02-02T16:59:41;20.75;;;5.15;;
74626;SDS011;63132;52.268;5.192;2023-02-02T17:02:17;24.17;;;5.00;;
74626;SDS011;63132;52.268;5.192;2023-02-02T17:04:48;23.57;;;5.10;;
74626;SDS011;63132;52.268;5.192;2023-02-02T17:07:18;20.83;;;4.80;;
74626;SDS011;63132;52.268;5.192;2023-02-02T17:09:45;25.70;;;5.90;;
74626;SDS011;63132;52.268;5.192;2023-02-02T17:17:17;18.02;;;4.68;;
74626;SDS011;63132;52.268;5.192;2023-02-02T17:19:42;19.67;;;4.72;;
74626;SDS011;63132;52.268;5.192;2023-02-02T17:22:08;17.27;;;4.60;;
74626;SDS011;63132;52.268;5.192;2023-02-02T17:24:34;16.60;;;4.50;;
74626;SDS011;63132;52.268;5.192;2023-02-02T17:27:00;21.50;;;5.13;;
74626;SDS011;63132;52.268;5.192;2023-02-02T17:29:26;18.30;;;4.30;;
74626;SDS011;63132;52.268;5.192;2023-02-02T17:31:51;19.77;;;4.80;;
74626;SDS011;63132;52.268;5.192;2023-02-02T17:34:17;20.97;;;4.97;;
74626;SDS011;63132;52.268;5.192;2023-02-02T17:36:43;19.80;;;4.45;;
74626;SDS011;63132;52.268;5.192;2023-02-02T17:39:09;24.07;;;5.43;;
74626;SDS011;63132;52.268;5.192;2023-02-02T17:41:35;18.58;;;4.93;;
74626;SDS011;63132;52.268;5.192;2023-02-02T17:44:01;16.35;;;4.90;;
74626;SDS011;63132;52.268;5.192;2023-02-02T17:46:29;20.33;;;4.78;;
74626;SDS011;63132;52.268;5.192;2023-02-02T17:48:55;21.95;;;5.38;;